Time;durP1;ratioP1;P1;durP2;ratioP2;P2;SDS_P1;SDS_P2;PMS_P1;PMS_P2;Temp;Humidity;BMP_temperature;BMP_pressure;BME280_temperature;BME280_humidity;BME280_pressure;Samples;Min_cycle;Max_cycle;Signal;HPM_P1;HPM_P2
2023/03/05 00:01:12;;;;;;;0.10;0.10;;;;;;;-2.05;76.20;96833.69;5018116;28;20085;-76
2023/03/05 00:03:38;;;;;;;0.10;0.10;;;;;;;-2.07;76.32;96835.84;5013442;28;20103;-76
2023/03/05 00:06:05;;;;;;;0.10;0.10;;;;;;;-2.04;76.61;96829.13;5011828;28;20627;-75
2023/03/05 00:08:32;;;;;;;0.20;0.20;;;;;;;-2.01;76.08;96839.34;5014518;28;20050;-75
2023/03/05 00:11:01;;;;;;;0.10;0.10;;;;;;;-2.07;76.37;96827.00;5018518;28;20045;-76
2023/03/05 00:13:28;;;;;;;0.10;0.10;;;;;;;-2.05;76.50;96830.19;5020210;28;20491;-75
2023/03/05 00:15:54;;;;;;;0.10;0.10;;;;;;;-2.05;76.36;96836.38;5005158;28;20126;-75
2023/03/05 00:18:20;;;;;;;0.10;0.10;;;;;;;-2.01;76.31;96837.44;5019824;28;20041;-74
2023/03/05 00:20:47;;;;;;;0.10;0.10;;;;;;;-2.08;76.09;96847.63;5019273;28;20046;-75
2023/03/05 00:23:13;;;;;;;0.10;0.10;;;;;;;-2.09;76.59;96837.97;4992090;28;20046;-75
2023/03/05 00:25:40;;;;;;;0.10;0.10;;;;;;;-2.07;76.59;96835.84;5014777;28;20136;-75
2023/03/05 00:28:07;;;;;;;0.10;0.10;;;;;;;-2.11;76.75;96813.31;5013824;28;20144;-75
2023/03/05 00:30:34;;;;;;;0.10;0.10;;;;;;;-2.09;76.64;96835.31;5004121;28;20060;-75
2023/03/05 00:33:01;;;;;;;0.10;0.10;;;;;;;-2.11;77.06;96823.25;5005721;28;20429;-75
2023/03/05 00:35:28;;;;;;;0.10;0.10;;;;;;;-2.12;76.51;96827.78;5014577;28;20046;-75
2023/03/05 00:37:54;;;;;;;0.10;0.10;;;;;;;-2.18;76.98;96810.94;5017923;28;20075;-75
2023/03/05 00:40:20;;;;;;;0.10;0.10;;;;;;;-2.12;76.65;96843.06;5002467;28;20096;-75
2023/03/05 00:42:47;;;;;;;0.10;0.10;;;;;;;-2.22;76.83;96839.28;5005524;28;20518;-76
2023/03/05 00:45:15;;;;;;;0.10;0.10;;;;;;;-2.26;77.36;96840.06;5016526;28;20068;-76
2023/03/05 00:47:40;;;;;;;;;;;;;;;-2.22;76.75;96833.91;5008330;28;20050;-74
2023/03/05 00:50:08;;;;;;;0.10;0.10;;;;;;;-2.22;76.97;96836.59;5020506;28;19982;-75
2023/03/05 00:52:34;;;;;;;0.10;0.10;;;;;;;-2.22;77.00;96823.22;5014291;28;20077;-75
2023/03/05 00:55:00;;;;;;;0.10;0.10;;;;;;;-2.16;76.98;96840.91;5021472;28;20077;-75
2023/03/05 00:57:27;;;;;;;0.10;0.10;;;;;;;-2.17;76.84;96830.47;5001898;28;20105;-75
2023/03/05 00:59:53;;;;;;;0.10;0.10;;;;;;;-2.08;76.89;96836.09;5016156;28;20145;-76
2023/03/05 01:02:20;;;;;;;0.10;0.10;;;;;;;-2.19;76.41;96822.69;5010441;28;20046;-74
2023/03/05 01:04:47;;;;;;;0.10;0.10;;;;;;;-2.24;76.88;96837.94;4999192;28;20053;-74
2023/03/05 01:07:13;;;;;;;0.10;0.10;;;;;;;-2.20;76.91;96841.69;4991998;28;20056;-74
2023/03/05 01:09:39;;;;;;;0.10;0.10;;;;;;;-2.32;76.70;96828.56;5012766;28;20077;-74
2023/03/05 01:12:06;;;;;;;0.10;0.10;;;;;;;-2.26;76.69;96840.88;5011268;28;20037;-75
2023/03/05 01:14:34;;;;;;;0.10;0.10;;;;;;;-2.32;76.86;96829.34;5007452;28;20113;-74
2023/03/05 01:17:00;;;;;;;;;;;;;;;-2.33;76.71;96834.97;5013245;28;20046;-75
2023/03/05 01:19:28;;;;;;;0.10;0.10;;;;;;;-2.30;76.20;96837.13;5009719;28;19944;-75
2023/03/05 01:21:54;;;;;;;;;;;;;;;-2.40;76.43;96851.28;5011149;28;20060;-74
2023/03/05 01:24:20;;;;;;;0.10;0.10;;;;;;;-2.55;76.01;96829.81;4978994;28;19925;-74
2023/03/05 01:26:48;;;;;;;0.10;0.10;;;;;;;-2.50;76.46;96843.22;5009007;28;20042;-74
2023/03/05 01:29:14;;;;;;;0.10;0.10;;;;;;;-2.53;76.94;96828.47;5008565;28;20103;-74
2023/03/05 01:31:40;;;;;;;0.10;0.10;;;;;;;-2.49;76.39;96831.44;5014117;28;20045;-75
2023/03/05 01:34:06;;;;;;;0.10;0.10;;;;;;;-2.59;76.25;96833.00;5015109;28;20041;-76
2023/03/05 01:36:34;;;;;;;0.10;0.10;;;;;;;-2.62;76.61;96822.03;5017893;28;20049;-75
2023/03/05 01:39:01;;;;;;;0.10;0.10;;;;;;;-2.59;76.73;96830.31;5005107;28;20049;-74
2023/03/05 01:41:27;;;;;;;0.10;0.10;;;;;;;-2.61;76.38;96835.13;4993979;28;20509;-75
2023/03/05 01:43:53;;;;;;;0.10;0.10;;;;;;;-2.62;76.36;96849.59;5012637;28;20037;-76
2023/03/05 01:46:26;;;;;;;0.10;0.10;;;;;;;-2.55;76.26;96832.50;5014104;28;20052;-76
2023/03/05 01:48:58;;;;;;;0.10;0.10;;;;;;;-2.64;75.90;96834.88;5008657;28;20049;-74
2023/03/05 01:51:28;;;;;;;0.10;0.10;;;;;;;-2.68;76.45;96833.78;5015344;28;20141;-75
2023/03/05 01:53:59;;;;;;;0.10;0.10;;;;;;;-2.75;76.26;96820.63;5015298;28;20520;-76
2023/03/05 01:56:28;;;;;;;0.10;0.10;;;;;;;-2.77;76.16;96839.63;5009832;28;20492;-76
2023/03/05 01:59:02;;;;;;;0.10;0.10;;;;;;;-2.93;76.50;96822.69;5017095;28;20509;-75
2023/03/05 02:01:38;;;;;;;0.10;0.10;;;;;;;-2.90;76.43;96830.19;5015053;28;20045;-75
2023/03/05 02:04:05;;;;;;;0.10;0.10;;;;;;;-2.97;76.39;96840.34;5013446;28;20045;-75
2023/03/05 02:06:32;;;;;;;0.10;0.10;;;;;;;-3.02;76.49;96818.94;5019669;28;20050;-75
2023/03/05 02:09:00;;;;;;;0.10;0.10;;;;;;;-3.06;76.61;96834.69;5010635;28;20048;-75
2023/03/05 02:11:26;;;;;;;0.10;0.10;;;;;;;-3.13;76.62;96828.75;5013402;28;20548;-75
2023/03/05 02:13:53;;;;;;;0.10;0.10;;;;;;;-3.19;77.02;96824.44;4997575;28;20085;-76
2023/03/05 02:16:19;;;;;;;0.20;0.20;;;;;;;-3.28;77.38;96849.00;5015160;28;20042;-76
2023/03/05 02:18:46;;;;;;;0.10;0.10;;;;;;;-3.36;77.31;96840.63;4997431;28;20567;-75
2023/03/05 02:21:27;;;;;;;0.10;0.10;;;;;;;-3.35;77.86;96831.56;5015926;28;20041;-75
2023/03/05 02:23:53;;;;;;;0.10;0.10;;;;;;;-3.36;77.78;96833.44;5010363;28;20053;-75
2023/03/05 02:26:20;;;;;;;0.15;0.15;;;;;;;-3.40;77.96;96837.69;5016168;28;20087;-75
2023/03/05 02:28:51;;;;;;;0.10;0.10;;;;;;;-3.32;77.76;96839.06;5001966;28;20044;-75
2023/03/05 02:31:19;;;;;;;0.10;0.10;;;;;;;-3.28;77.38;96829.47;5017006;28;20828;-75
2023/03/05 02:33:46;;;;;;;0.10;0.10;;;;;;;-3.26;77.48;96827.34;4992694;28;20056;-74
2023/03/05 02:36:15;;;;;;;0.10;0.10;;;;;;;-3.25;77.38;96822.81;5012904;28;20108;-75
2023/03/05 02:38:45;;;;;;;0.20;0.20;;;;;;;-3.32;77.39;96815.00;5013018;28;20141;-74
2023/03/05 02:41:11;;;;;;;0.10;0.10;;;;;;;-3.27;77.44;96825.72;4996811;28;20136;-75
2023/03/05 02:43:38;;;;;;;0.10;0.10;;;;;;;-3.24;77.53;96829.75;5011078;28;20428;-76
2023/03/05 02:46:05;;;;;;;0.10;0.10;;;;;;;-3.26;77.49;96829.22;5013166;28;20048;-75
2023/03/05 02:48:31;;;;;;;0.10;0.10;;;;;;;-3.17;77.25;96828.47;5020389;28;20512;-75
2023/03/05 02:50:57;;;;;;;0.10;0.10;;;;;;;-3.23;77.17;96824.16;5020877;28;20065;-74
2023/03/05 02:53:25;;;;;;;0.10;0.10;;;;;;;-3.33;77.47;96832.91;5006541;28;20077;-75
2023/03/05 02:55:51;;;;;;;0.00;0.00;;;;;;;-3.30;77.43;96820.91;5024300;28;20069;-75
2023/03/05 02:58:18;;;;;;;0.10;0.10;;;;;;;-3.29;77.46;96838.56;5011075;28;20073;-74
2023/03/05 03:00:45;;;;;;;0.10;0.10;;;;;;;-3.42;77.67;96819.22;5015675;28;20072;-75
2023/03/05 03:03:12;;;;;;;0.10;0.10;;;;;;;-3.40;78.08;96815.47;4996387;28;20060;-75
2023/03/05 03:05:39;;;;;;;0.10;0.10;;;;;;;-3.39;78.03;96817.91;5019374;28;20041;-74
2023/03/05 03:08:06;;;;;;;0.10;0.10;;;;;;;-3.44;77.93;96804.50;5010692;28;20547;-75
2023/03/05 03:10:34;;;;;;;0.10;0.10;;;;;;;-3.58;77.98;96786.28;5012372;28;20073;-75
2023/03/05 03:13:00;;;;;;;0.10;0.10;;;;;;;-3.44;78.32;96809.84;5012372;28;20049;-75
2023/03/05 03:15:27;;;;;;;0.10;0.10;;;;;;;-3.43;77.88;96806.94;5015293;28;20133;-74
2023/03/05 03:17:54;;;;;;;0.10;0.10;;;;;;;-3.39;77.88;96809.06;5040826;28;20054;-75
2023/03/05 03:20:20;;;;;;;0.10;0.10;;;;;;;-3.46;77.81;96810.13;5017508;28;20835;-74
2023/03/05 03:22:46;;;;;;;0.10;0.10;;;;;;;-3.43;78.06;96806.94;5017512;28;20060;-75
2023/03/05 03:25:15;;;;;;;0.10;0.10;;;;;;;-3.47;77.99;96800.50;5012466;28;20057;-75
2023/03/05 03:27:43;;;;;;;0.10;0.10;;;;;;;-3.51;78.31;96794.06;5020401;28;20140;-74
2023/03/05 03:30:10;;;;;;;0.10;0.10;;;;;;;-3.51;77.89;96790.56;5017937;28;20046;-74
2023/03/05 03:32:37;;;;;;;0.10;0.10;;;;;;;-3.37;77.93;96804.28;5009709;28;20054;-75
2023/03/05 03:35:03;;;;;;;0.10;0.10;;;;;;;-3.51;77.80;96801.25;5016003;28;20052;-75
2023/03/05 03:37:30;;;;;;;0.10;0.10;;;;;;;-3.50;78.14;96797.53;5023287;28;20068;-75
2023/03/05 03:39:56;;;;;;;0.20;0.20;;;;;;;-3.41;78.08;96806.69;5014455;28;20532;-74
2023/03/05 03:42:23;;;;;;;0.10;0.10;;;;;;;-3.38;78.20;96808.00;5018161;28;20531;-75
2023/03/05 03:44:51;;;;;;;0.10;0.10;;;;;;;-3.38;78.30;96808.84;5020001;28;20604;-74
2023/03/05 03:47:17;;;;;;;0.10;0.10;;;;;;;-3.32;78.32;96809.66;5012267;28;20053;-75
2023/03/05 03:49:43;;;;;;;0.10;0.10;;;;;;;-3.23;77.79;96812.66;5016269;28;20148;-75
2023/03/05 03:52:10;;;;;;;0.10;0.10;;;;;;;-3.31;78.17;96811.28;5013350;28;20513;-74
2023/03/05 03:54:36;;;;;;;0.10;0.10;;;;;;;-3.32;78.50;96805.13;5013021;28;20057;-74
2023/03/05 03:57:02;;;;;;;0.10;0.10;;;;;;;-3.24;78.66;96808.38;5005615;28;20053;-75
2023/03/05 03:59:28;;;;;;;0.10;0.10;;;;;;;-3.14;78.61;96808.41;5016275;28;20049;-75
2023/03/05 04:01:56;;;;;;;0.10;0.10;;;;;;;-3.11;78.71;96809.78;5021161;28;20050;-75
2023/03/05 04:04:22;;;;;;;0.10;0.10;;;;;;;-3.08;78.88;96806.59;4998770;28;20402;-75
2023/03/05 04:06:48;;;;;;;0.10;0.10;;;;;;;-3.15;79.51;96807.63;5020190;28;20432;-75
2023/03/05 04:09:14;;;;;;;0.10;0.10;;;;;;;-3.26;80.56;96811.31;5016307;28;20116;-75
2023/03/05 04:11:41;;;;;;;0.10;0.10;;;;;;;-3.29;81.29;96809.16;5015656;28;20078;-74
2023/03/05 04:14:07;;;;;;;0.17;0.17;;;;;;;-3.36;81.78;96811.22;5013947;28;20479;-75
2023/03/05 04:16:33;;;;;;;0.20;0.20;;;;;;;-3.42;82.11;96815.75;5018462;28;20045;-75
2023/03/05 04:19:00;;;;;;;0.20;0.13;;;;;;;-3.48;82.94;96809.56;5013556;28;20060;-75
2023/03/05 04:21:28;;;;;;;0.10;0.10;;;;;;;-3.44;82.74;96812.50;5020596;28;20406;-75
2023/03/05 04:23:54;;;;;;;0.10;0.10;;;;;;;-3.43;82.91;96809.59;5019075;28;20057;-74
2023/03/05 04:26:20;;;;;;;0.00;0.00;;;;;;;-3.36;82.34;96809.38;5018234;28;20061;-75
2023/03/05 04:28:47;;;;;;;0.10;0.10;;;;;;;-3.30;81.94;96808.34;5008345;28;20140;-75
2023/03/05 04:31:13;;;;;;;0.10;0.10;;;;;;;-3.33;81.44;96806.19;5021414;28;20259;-75
2023/03/05 04:33:39;;;;;;;0.10;0.10;;;;;;;-3.32;81.22;96801.66;5017743;28;20050;-75
2023/03/05 04:36:08;;;;;;;0.10;0.10;;;;;;;-3.32;80.82;96801.66;5020520;28;20614;-75
2023/03/05 04:38:34;;;;;;;0.10;0.10;;;;;;;-3.24;80.25;96835.09;5019306;28;20140;-74
2023/03/05 04:41:00;;;;;;;0.10;0.10;;;;;;;-3.23;80.28;96820.69;5022729;28;20060;-75
2023/03/05 04:43:26;;;;;;;0.10;0.10;;;;;;;-3.23;80.22;96801.97;5024044;28;20097;-75
2023/03/05 04:45:54;;;;;;;0.20;0.20;;;;;;;-3.21;79.98;96821.22;4989037;28;20544;-76
2023/03/05 04:48:20;;;;;;;0.10;0.10;;;;;;;-3.24;79.85;96819.06;5014416;28;20061;-76
2023/03/05 04:50:47;;;;;;;0.10;0.10;;;;;;;-3.23;79.51;96805.44;5020842;28;20081;-75
2023/03/05 04:53:14;;;;;;;0.10;0.10;;;;;;;-3.18;79.32;96813.50;4998514;28;20826;-75
2023/03/05 04:55:41;;;;;;;0.20;0.20;;;;;;;-3.04;79.09;96818.38;5016798;28;20042;-76
2023/03/05 04:58:08;;;;;;;0.10;0.10;;;;;;;-3.06;78.55;96818.63;5014319;28;20045;-75
2023/03/05 05:00:34;;;;;;;0.10;0.10;;;;;;;-3.06;77.63;96812.47;5013421;28;20152;-75
2023/03/05 05:03:00;;;;;;;0.10;0.10;;;;;;;-3.02;78.10;96818.94;5012231;28;20491;-75
2023/03/05 05:05:27;;;;;;;0.10;0.10;;;;;;;-2.94;77.67;96822.97;5016894;28;20044;-74
2023/03/05 05:07:55;;;;;;;0.15;0.15;;;;;;;-3.01;77.20;96807.16;5014332;28;20104;-75
2023/03/05 05:10:23;;;;;;;0.10;0.10;;;;;;;-2.91;77.24;96841.16;5015690;28;20054;-75
2023/03/05 05:12:49;;;;;;;0.10;0.10;;;;;;;-2.97;77.04;96826.97;5013924;28;20147;-74
2023/03/05 05:15:15;;;;;;;0.10;0.10;;;;;;;-2.96;76.79;96825.13;4996938;28;20072;-76
2023/03/05 05:17:41;;;;;;;0.10;0.10;;;;;;;-2.90;76.76;96826.72;5013022;28;20501;-75
2023/03/05 05:20:10;;;;;;;0.10;0.10;;;;;;;-2.82;76.80;96836.13;5020749;28;20492;-75
2023/03/05 05:22:36;;;;;;;0.10;0.10;;;;;;;-2.86;76.17;96836.66;5010389;28;20046;-75
2023/03/05 05:25:04;;;;;;;0.47;0.20;;;;;;;-2.89;76.37;96810.44;5020370;28;20096;-75
2023/03/05 05:27:31;;;;;;;0.10;0.10;;;;;;;-2.86;75.62;96849.22;5017270;28;20085;-75
2023/03/05 05:29:57;;;;;;;;;;;;;;;-2.82;76.16;96831.56;5007936;28;20488;-75
2023/03/05 05:32:24;;;;;;;0.10;0.10;;;;;;;-2.73;75.21;96832.69;5010953;28;20499;-75
2023/03/05 05:34:53;;;;;;;0.20;0.20;;;;;;;-2.74;75.51;96825.75;5014911;28;20045;-75
2023/03/05 05:37:19;;;;;;;0.20;0.20;;;;;;;-2.60;75.40;96839.44;4992585;28;20140;-75
2023/03/05 05:39:49;;;;;;;0.20;0.20;;;;;;;-2.53;74.71;96835.72;5020596;28;20077;-75
2023/03/05 05:42:15;;;;;;;0.10;0.10;;;;;;;-2.46;74.63;96830.91;4992677;28;20050;-76
2023/03/05 05:44:43;;;;;;;0.10;0.10;;;;;;;-2.44;73.98;96826.91;5015419;28;20042;-75
2023/03/05 05:47:10;;;;;;;0.20;0.20;;;;;;;-2.34;73.39;96834.16;5018442;28;20061;-74
2023/03/05 05:49:37;;;;;;;0.10;0.10;;;;;;;-2.42;73.38;96827.44;5016260;28;20066;-75
2023/03/05 05:52:03;;;;;;;0.13;0.13;;;;;;;-2.50;76.22;96841.31;5004968;28;20050;-73
2023/03/05 05:54:29;;;;;;;0.10;0.10;;;;;;;-2.48;75.64;96833.88;5012510;28;20046;-75
2023/03/05 05:56:56;;;;;;;0.10;0.10;;;;;;;-2.45;74.84;96832.53;5018134;28;20041;-74
2023/03/05 05:59:22;;;;;;;0.20;0.20;;;;;;;-2.49;75.32;96828.78;5010562;28;20149;-74
2023/03/05 06:01:50;;;;;;;0.10;0.10;;;;;;;-2.44;74.95;96850.19;5008983;28;20050;-74
2023/03/05 06:04:16;;;;;;;;;;;;;;;-2.47;75.71;96838.16;5017399;28;20045;-74
2023/03/05 06:06:42;;;;;;;0.20;0.20;;;;;;;-2.45;75.13;96835.19;5013389;28;19929;-74
2023/03/05 06:09:08;;;;;;;0.10;0.10;;;;;;;-2.45;75.80;96852.06;5018931;28;20531;-75
2023/03/05 06:11:34;;;;;;;0.20;0.20;;;;;;;-2.50;76.30;96865.41;5004535;28;20073;-74
2023/03/05 06:14:07;;;;;;;0.10;0.10;;;;;;;-2.54;77.76;96850.94;5013554;28;20050;-74
2023/03/05 06:16:33;;;;;;;0.20;0.20;;;;;;;-2.55;78.41;96844.00;4992558;28;20564;-74
2023/03/05 06:19:03;;;;;;;0.20;0.20;;;;;;;-2.50;79.22;96841.31;5012621;28;20076;-74
2023/03/05 06:21:30;;;;;;;0.10;0.10;;;;;;;-2.32;79.92;96839.28;4993520;28;20053;-74
2023/03/05 06:23:57;;;;;;;0.22;0.22;;;;;;;-2.27;79.02;96852.66;5019635;28;20127;-74
2023/03/05 06:26:24;;;;;;;0.10;0.10;;;;;;;-2.36;78.32;96840.84;5023582;28;20053;-76
2023/03/05 06:28:51;;;;;;;0.10;0.10;;;;;;;-2.32;78.32;96839.28;5013540;28;20108;-74
2023/03/05 06:31:20;;;;;;;0.20;0.20;;;;;;;-2.36;79.34;96847.00;5012945;28;20163;-75
2023/03/05 06:33:47;;;;;;;0.30;0.30;;;;;;;-2.37;80.85;96839.22;4998950;28;20041;-75
2023/03/05 06:36:17;;;;;;;0.17;0.17;;;;;;;-2.39;80.99;96852.91;5016647;28;20107;-75
2023/03/05 06:38:44;;;;;;;0.20;0.20;;;;;;;-2.32;81.80;96844.63;5007655;28;20057;-75
2023/03/05 06:41:12;;;;;;;0.10;0.10;;;;;;;-2.22;80.54;96847.31;5009536;28;20045;-74
2023/03/05 06:43:39;;;;;;;;;;;;;;;-2.21;80.36;96848.91;5012536;28;20132;-75
2023/03/05 06:46:10;;;;;;;0.20;0.20;;;;;;;-2.25;79.15;96845.16;4999401;28;19956;-75
2023/03/05 06:48:36;;;;;;;0.27;0.20;;;;;;;-2.38;78.91;96854.50;5001233;28;20049;-74
2023/03/05 06:51:02;;;;;;;0.20;0.20;;;;;;;-2.37;78.74;96855.28;5012253;28;20052;-75
2023/03/05 06:53:30;;;;;;;0.20;0.20;;;;;;;-2.32;79.06;96856.13;5016828;28;20053;-75
2023/03/05 06:55:56;;;;;;;;;;;;;;;-2.23;77.59;96861.75;5008890;28;20834;-75
2023/03/05 06:58:22;;;;;;;0.20;0.20;;;;;;;-2.37;78.27;96852.63;5018324;28;19925;-77
2023/03/05 07:00:49;;;;;;;0.10;0.10;;;;;;;-2.23;77.88;96864.44;4998423;28;20419;-76
2023/03/05 07:03:15;;;;;;;0.20;0.20;;;;;;;-2.18;77.70;96863.66;5014445;28;20534;-75
2023/03/05 07:05:42;;;;;;;0.10;0.10;;;;;;;-2.19;77.25;96880.78;4997293;28;20448;-76
2023/03/05 07:08:09;;;;;;;0.13;0.13;;;;;;;-2.35;77.35;96859.31;5014334;28;20073;-75
2023/03/05 07:10:39;;;;;;;0.10;0.10;;;;;;;-2.33;77.52;96867.09;5010573;28;20052;-75
2023/03/05 07:13:06;;;;;;;0.10;0.10;;;;;;;-2.24;77.40;96876.22;5015649;28;20058;-78
2023/03/05 07:15:32;;;;;;;0.10;0.10;;;;;;;-2.29;77.52;96874.31;5020816;28;20076;-76
2023/03/05 07:17:58;;;;;;;0.10;0.10;;;;;;;-2.39;77.56;96876.97;4995418;28;20046;-75
2023/03/05 07:20:24;;;;;;;0.10;0.10;;;;;;;-2.31;78.57;96883.69;5022986;28;20516;-75
2023/03/05 07:22:50;;;;;;;0.10;0.10;;;;;;;-2.24;78.10;96889.59;5023092;28;20056;-76
2023/03/05 07:25:20;;;;;;;0.10;0.10;;;;;;;-2.20;77.94;96887.22;5023849;28;20191;-75
2023/03/05 07:27:47;;;;;;;0.13;0.13;;;;;;;-2.11;77.58;96885.63;5018655;28;20042;-74
2023/03/05 07:30:14;;;;;;;0.20;0.20;;;;;;;-2.09;77.29;96888.84;5018588;28;20498;-75
2023/03/05 07:32:41;;;;;;;0.13;0.13;;;;;;;-1.99;76.80;96888.06;4981543;28;20046;-75
2023/03/05 07:35:08;;;;;;;0.20;0.20;;;;;;;-2.05;76.72;96891.78;5017931;28;20469;-75
2023/03/05 07:37:34;;;;;;;0.10;0.10;;;;;;;-2.06;76.84;96899.03;5017981;28;20056;-76
2023/03/05 07:40:00;;;;;;;0.10;0.10;;;;;;;-2.24;77.14;96880.78;5013840;28;20045;-76
2023/03/05 07:42:27;;;;;;;0.20;0.20;;;;;;;-2.16;77.28;96902.50;5014239;28;20049;-75
2023/03/05 07:45:10;;;;;;;0.10;0.10;;;;;;;-2.18;77.64;96906.50;5017406;28;20046;-76
2023/03/05 07:47:36;;;;;;;0.10;0.10;;;;;;;-2.17;77.89;96908.91;5020691;28;20107;-76
2023/03/05 07:50:03;;;;;;;0.10;0.10;;;;;;;-2.12;78.19;96908.09;5017435;28;20116;-75
2023/03/05 07:52:29;;;;;;;0.20;0.20;;;;;;;-2.14;78.44;96910.25;5023608;28;20053;-76
2023/03/05 07:54:55;;;;;;;0.20;0.20;;;;;;;-2.19;78.71;96920.94;5019020;28;20125;-75
2023/03/05 07:57:22;;;;;;;0.57;0.30;;;;;;;-2.21;79.26;96923.09;5021580;28;20527;-75
2023/03/05 07:59:48;;;;;;;0.20;0.20;;;;;;;-2.20;79.83;96933.50;5017819;28;20049;-76
2023/03/05 08:02:18;;;;;;;0.20;0.20;;;;;;;-2.23;80.04;96935.94;5020363;28;20108;-75
2023/03/05 08:04:44;;;;;;;0.20;0.20;;;;;;;-2.15;80.24;96938.91;4995001;28;20045;-76
2023/03/05 08:07:13;;;;;;;0.10;0.10;;;;;;;-2.14;79.66;96919.09;5018404;28;20065;-75
2023/03/05 08:09:41;;;;;;;0.20;0.20;;;;;;;-2.04;79.45;96942.41;5018351;28;20467;-75
2023/03/05 08:12:09;;;;;;;0.30;0.30;;;;;;;-2.06;79.43;96951.78;4997158;28;20053;-76
2023/03/05 08:14:35;;;;;;;0.10;0.10;;;;;;;-2.03;79.73;96951.25;5017688;28;20144;-75
2023/03/05 08:17:02;;;;;;;0.10;0.10;;;;;;;-2.01;79.59;96951.81;4667763;28;10000804;-75
2023/03/05 08:19:31;;;;;;;0.20;0.20;;;;;;;-1.93;79.49;96956.66;5010938;28;20050;-75
2023/03/05 08:21:57;;;;;;;0.10;0.10;;;;;;;-1.78;79.14;96958.56;5005992;28;20140;-74
2023/03/05 08:24:28;;;;;;;0.10;0.10;;;;;;;-1.68;79.02;96962.34;4993076;28;20041;-74
2023/03/05 08:26:55;;;;;;;0.20;0.20;;;;;;;-1.57;78.60;96969.34;5010606;28;20156;-75
2023/03/05 08:29:21;;;;;;;0.20;0.20;;;;;;;-1.68;78.26;96944.41;5009897;28;20052;-75
2023/03/05 08:31:47;;;;;;;0.10;0.10;;;;;;;-1.39;78.08;96975.25;5007466;28;20448;-75
2023/03/05 08:34:13;;;;;;;0.17;0.17;;;;;;;-1.35;77.75;96974.47;5014713;28;20595;-75
2023/03/05 08:40:06;;;;;;;0.10;0.10;;;;;;;-1.35;77.49;96995.91;5013964;28;20054;-75
2023/03/05 08:42:32;;;;;;;0.10;0.10;;;;;;;-1.47;77.84;96992.66;5011696;28;20111;-74
2023/03/05 08:44:58;;;;;;;0.10;0.10;;;;;;;-1.59;77.83;96976.84;5009490;28;20068;-74
2023/03/05 08:47:26;;;;;;;0.22;0.10;;;;;;;-1.69;78.18;96987.53;5016898;28;20575;-74
2023/03/05 08:49:54;;;;;;;0.10;0.10;;;;;;;-1.77;78.59;96972.75;5015776;28;20053;-74
2023/03/05 08:52:22;;;;;;;0.20;0.20;;;;;;;-1.65;78.20;96985.91;5014641;28;20077;-75
2023/03/05 08:54:48;;;;;;;;;;;;;;;-1.55;77.96;96999.34;5014937;28;20500;-75
2023/03/05 08:57:14;;;;;;;0.10;0.10;;;;;;;-1.39;77.81;97008.25;5018078;28;20019;-74
2023/03/05 08:59:41;;;;;;;0.20;0.20;;;;;;;-1.32;77.21;96998.06;5017104;28;20140;-76
2023/03/05 09:02:09;;;;;;;0.20;0.20;;;;;;;-1.19;77.50;97006.66;5034041;28;20045;-74
2023/03/05 09:04:39;;;;;;;0.10;0.10;;;;;;;-1.41;77.58;96980.88;5011707;28;20045;-74
2023/03/05 09:07:09;;;;;;;0.20;0.20;;;;;;;-1.16;77.12;97014.97;5010884;28;20113;-75
2023/03/05 09:09:37;;;;;;;0.20;0.20;;;;;;;-1.30;77.58;97003.16;5010456;28;20055;-74
2023/03/05 09:12:04;;;;;;;0.30;0.30;;;;;;;-1.33;78.24;97027.81;5016822;28;20049;-75
2023/03/05 09:14:30;;;;;;;0.20;0.20;;;;;;;-1.32;78.99;97032.91;5019144;28;20038;-74
2023/03/05 09:17:17;;;;;;;0.20;0.20;;;;;;;-1.18;78.90;97032.41;5013528;28;20050;-75
2023/03/05 09:19:43;;;;;;;0.20;0.20;;;;;;;-0.95;78.75;97036.44;5017964;28;20064;-75
2023/03/05 09:22:09;;;;;;;0.28;0.28;;;;;;;-0.81;77.83;97031.34;5009975;28;20065;-74
2023/03/05 09:24:37;;;;;;;0.20;0.20;;;;;;;-0.79;77.90;97031.88;5020311;28;20056;-74
2023/03/05 09:27:04;;;;;;;0.20;0.20;;;;;;;-0.53;77.78;97044.50;5005141;28;20566;-74
2023/03/05 09:29:30;;;;;;;0.20;0.20;;;;;;;-0.47;77.44;97043.41;5011892;28;20054;-74
2023/03/05 09:31:56;;;;;;;0.20;0.20;;;;;;;-0.46;76.92;97061.13;5020314;28;20574;-74
2023/03/05 09:34:22;;;;;;;0.10;0.10;;;;;;;-0.41;77.22;97049.59;4999691;28;20421;-74
2023/03/05 09:36:49;;;;;;;0.20;0.20;;;;;;;-0.18;76.92;97058.94;5021761;28;20045;-74
2023/03/05 09:39:15;;;;;;;0.15;0.15;;;;;;;-0.13;76.16;97061.63;5007733;28;20563;-74
2023/03/05 09:42:10;;;;;;;0.17;0.17;;;;;;;-0.22;75.71;97060.56;5000813;28;20537;-74
2023/03/05 09:44:45;;;;;;;0.25;0.25;;;;;;;-0.36;76.47;97058.44;5013473;28;20107;-75
2023/03/05 09:47:25;;;;;;;0.10;0.10;;;;;;;-0.32;76.52;97074.81;4986017;28;20049;-74
2023/03/05 09:50:00;;;;;;;0.10;0.10;;;;;;;-0.34;76.67;97072.41;5018608;28;20065;-75
2023/03/05 09:52:38;;;;;;;0.10;0.10;;;;;;;-0.17;76.94;97071.31;4981231;28;20664;-75
2023/03/05 09:55:12;;;;;;;0.20;0.20;;;;;;;0.01;76.02;97079.84;5013425;28;20442;-74
2023/03/05 09:57:44;;;;;;;0.20;0.20;;;;;;;0.31;75.27;97091.59;5013099;28;20050;-75
2023/03/05 10:00:26;;;;;;;0.20;0.20;;;;;;;0.28;74.37;97093.75;5018106;28;20099;-73
2023/03/05 10:02:57;;;;;;;0.10;0.10;;;;;;;0.14;74.40;97081.97;5015431;28;20428;-74
2023/03/05 10:05:28;;;;;;;0.20;0.20;;;;;;;0.31;74.92;97111.22;5015472;28;20092;-75
2023/03/05 10:07:59;;;;;;;0.20;0.20;;;;;;;0.33;74.65;97098.31;5013110;28;20053;-75
2023/03/05 10:10:33;;;;;;;0.20;0.20;;;;;;;0.42;74.88;97107.41;5014434;28;20366;-74
2023/03/05 10:13:06;;;;;;;0.20;0.20;;;;;;;0.39;73.01;97102.59;5016922;28;20041;-75
2023/03/05 10:15:39;;;;;;;0.30;0.30;;;;;;;0.56;73.10;97125.66;5018330;28;20056;-75
2023/03/05 10:18:18;;;;;;;0.20;0.20;;;;;;;0.80;72.60;97120.44;5020604;28;20460;-75
2023/03/05 10:20:54;;;;;;;0.20;0.20;;;;;;;1.20;72.09;97123.19;5013308;28;20046;-75
2023/03/05 10:23:28;;;;;;;0.20;0.20;;;;;;;1.30;70.08;97122.31;5019787;28;20049;-74
2023/03/05 10:26:02;;;;;;;0.20;0.20;;;;;;;1.47;70.00;97134.56;5009349;28;20049;-76
2023/03/05 10:28:39;;;;;;;0.20;0.20;;;;;;;1.59;69.56;97137.72;5013107;28;20097;-76
2023/03/05 10:31:26;;;;;;;0.20;0.20;;;;;;;1.50;69.30;97136.72;4998309;28;20140;-76
2023/03/05 10:34:06;;;;;;;0.20;0.20;;;;;;;1.61;70.28;97148.22;5012434;28;20057;-75
2023/03/05 10:36:45;;;;;;;0.20;0.20;;;;;;;1.56;70.48;97140.97;5015847;28;20578;-75
2023/03/05 10:39:48;;;;;;;0.20;0.20;;;;;;;1.38;69.06;97161.28;5019833;28;20060;-75
2023/03/05 10:42:24;;;;;;;0.20;0.20;;;;;;;1.15;67.90;97152.81;5012898;28;20060;-75
2023/03/05 10:44:54;;;;;;;0.20;0.20;;;;;;;0.95;67.80;97156.44;4672713;28;10000524;-76
2023/03/05 10:47:24;;;;;;;0.20;0.20;;;;;;;0.69;68.03;97168.09;5012757;28;20041;-76
2023/03/05 10:49:52;;;;;;;0.20;0.20;;;;;;;0.49;68.41;97163.59;5019185;28;20057;-76
2023/03/05 10:52:21;;;;;;;0.10;0.10;;;;;;;0.47;67.88;97176.50;5014155;28;20132;-76
2023/03/05 10:54:49;;;;;;;0.10;0.10;;;;;;;0.27;68.18;97180.84;5007510;28;20053;-76
2023/03/05 10:57:18;;;;;;;0.20;0.20;;;;;;;0.11;67.65;97180.06;5013972;28;20056;-76
2023/03/05 10:59:48;;;;;;;0.20;0.20;;;;;;;-0.02;68.84;97194.84;5017495;28;20054;-76
2023/03/05 11:02:17;;;;;;;0.30;0.30;;;;;;;0.03;69.39;97203.97;5015736;28;20041;-76
2023/03/05 11:04:46;;;;;;;0.13;0.13;;;;;;;0.10;69.50;97207.22;5014264;28;20053;-76
2023/03/05 11:07:36;;;;;;;0.20;0.20;;;;;;;0.05;68.07;97217.94;5021048;28;20128;-77
2023/03/05 11:10:12;;;;;;;0.17;0.17;;;;;;;0.02;68.29;97216.63;5019512;28;20060;-76
2023/03/05 11:12:39;;;;;;;0.20;0.20;;;;;;;-0.07;67.80;97229.78;5017845;28;20513;-75
2023/03/05 11:15:25;;;;;;;0.10;0.10;;;;;;;-0.15;68.02;97233.81;5017048;28;20509;-77
2023/03/05 11:18:18;;;;;;;0.10;0.10;;;;;;;-0.29;68.04;97235.41;5022915;28;20057;-77
2023/03/05 11:20:44;;;;;;;0.10;0.10;;;;;;;-0.35;68.15;97242.66;4997203;28;20528;-78
2023/03/05 11:23:12;;;;;;;0.20;0.20;;;;;;;-0.46;68.64;97246.38;5015154;28;20100;-77
2023/03/05 11:25:59;;;;;;;0.10;0.10;;;;;;;-0.45;69.21;97253.38;5018123;28;20057;-76
2023/03/05 11:28:29;;;;;;;0.10;0.10;;;;;;;-0.47;69.43;97259.03;5013409;28;20061;-76
2023/03/05 11:31:06;;;;;;;0.10;0.10;;;;;;;-0.63;70.08;97262.69;5010880;28;20070;-77
2023/03/05 11:33:35;;;;;;;0.20;0.20;;;;;;;-0.83;70.32;97274.19;5019466;28;20095;-76
2023/03/05 11:36:20;;;;;;;0.10;0.10;;;;;;;-0.97;71.41;97274.66;5019186;28;20049;-77
2023/03/05 11:38:52;;;;;;;0.20;0.20;;;;;;;-0.95;71.76;97282.44;5023998;28;20045;-76
2023/03/05 11:41:23;;;;;;;0.10;0.10;;;;;;;-0.88;71.93;97283.03;5014367;28;20046;-76
2023/03/05 11:43:51;;;;;;;0.20;0.20;;;;;;;-0.75;71.88;97295.16;4995819;28;20098;-76
2023/03/05 11:46:17;;;;;;;0.10;0.10;;;;;;;-0.72;71.56;97297.28;5012281;28;20508;-76